sensor_id;sensor_type;location;lat;lon;timestamp;pressure;altitude;pressure_sealevel;temperature;humidity
7802;BME280;3945;48.952;9.506;2022-08-19T00:00:07;97494.38;;;21.48;74.53
7802;BME280;3945;48.952;9.506;2022-08-19T00:02:34;97497.44;;;21.46;74.61
7802;BME280;3945;48.952;9.506;2022-08-19T00:05:00;97498.06;;;21.43;75.02
7802;BME280;3945;48.952;9.506;2022-08-19T00:07:26;97496.34;;;21.38;75.17
7802;BME280;3945;48.952;9.506;2022-08-19T00:09:53;97496.16;;;21.35;75.48
7802;BME280;3945;48.952;9.506;2022-08-19T00:12:21;97502.56;;;21.30;75.86
7802;BME280;3945;48.952;9.506;2022-08-19T00:14:47;97495.53;;;21.29;75.66
7802;BME280;3945;48.952;9.506;2022-08-19T00:17:13;97506.84;;;21.31;74.78
7802;BME280;3945;48.952;9.506;2022-08-19T00:19:40;97502.38;;;21.35;74.06
7802;BME280;3945;48.952;9.506;2022-08-19T00:22:06;97507.16;;;21.38;73.63
7802;BME280;3945;48.952;9.506;2022-08-19T00:24:33;97521.16;;;21.40;73.02
7802;BME280;3945;48.952;9.506;2022-08-19T00:27:00;97524.50;;;21.37;72.80
7802;BME280;3945;48.952;9.506;2022-08-19T00:29:28;97514.31;;;21.34;73.35
7802;BME280;3945;48.952;9.506;2022-08-19T00:31:55;97501.09;;;21.33;73.78
7802;BME280;3945;48.952;9.506;2022-08-19T00:34:23;97503.66;;;21.29;74.36
7802;BME280;3945;48.952;9.506;2022-08-19T00:36:52;97513.53;;;21.25;75.04
7802;BME280;3945;48.952;9.506;2022-08-19T00:39:19;97511.78;;;21.21;75.57
7802;BME280;3945;48.952;9.506;2022-08-19T00:41:46;97498.09;;;21.17;75.41
7802;BME280;3945;48.952;9.506;2022-08-19T00:44:14;97492.19;;;21.15;75.46
7802;BME280;3945;48.952;9.506;2022-08-19T00:46:43;97487.09;;;21.14;75.84
7802;BME280;3945;48.952;9.506;2022-08-19T00:49:11;97486.28;;;21.13;75.96
7802;BME280;3945;48.952;9.506;2022-08-19T00:51:40;97483.09;;;21.11;76.42
7802;BME280;3945;48.952;9.506;2022-08-19T00:54:07;97499.34;;;21.11;76.38
7802;BME280;3945;48.952;9.506;2022-08-19T00:56:34;97495.84;;;21.11;76.70
7802;BME280;3945;48.952;9.506;2022-08-19T00:59:00;97495.69;;;21.07;76.92
7802;BME280;3945;48.952;9.506;2022-08-19T01:01:28;97495.19;;;21.05;77.29
7802;BME280;3945;48.952;9.506;2022-08-19T01:03:55;97497.75;;;21.01;77.35
7802;BME280;3945;48.952;9.506;2022-08-19T01:06:22;97503.78;;;20.98;77.63
7802;BME280;3945;48.952;9.506;2022-08-19T01:08:48;97512.72;;;20.99;77.60
7802;BME280;3945;48.952;9.506;2022-08-19T01:11:14;97510.31;;;20.97;77.30
7802;BME280;3945;48.952;9.506;2022-08-19T01:13:41;97512.88;;;21.02;76.94
7802;BME280;3945;48.952;9.506;2022-08-19T01:16:09;97507.00;;;21.00;76.83
7802;BME280;3945;48.952;9.506;2022-08-19T01:18:36;97507.63;;;20.97;77.17
7802;BME280;3945;48.952;9.506;2022-08-19T01:21:07;97502.53;;;20.96;77.37
7802;BME280;3945;48.952;9.506;2022-08-19T01:23:35;97501.56;;;20.92;77.16
7802;BME280;3945;48.952;9.506;2022-08-19T01:26:11;97496.47;;;20.90;77.17
7802;BME280;3945;48.952;9.506;2022-08-19T01:28:38;97493.78;;;20.90;77.26
7802;BME280;3945;48.952;9.506;2022-08-19T01:31:05;97490.25;;;20.90;77.21
7802;BME280;3945;48.952;9.506;2022-08-19T01:33:31;97494.72;;;20.86;77.41
7802;BME280;3945;48.952;9.506;2022-08-19T01:36:03;97493.44;;;20.83;77.55
7802;BME280;3945;48.952;9.506;2022-08-19T01:38:29;97496.50;;;20.82;77.65
7802;BME280;3945;48.952;9.506;2022-08-19T01:40:57;97491.09;;;20.82;77.85
7802;BME280;3945;48.952;9.506;2022-08-19T01:43:24;97489.16;;;20.82;77.67
7802;BME280;3945;48.952;9.506;2022-08-19T01:45:51;97494.25;;;20.84;77.30
7802;BME280;3945;48.952;9.506;2022-08-19T01:48:18;97496.50;;;20.82;77.26
7802;BME280;3945;48.952;9.506;2022-08-19T01:50:44;97502.22;;;20.80;77.50
7802;BME280;3945;48.952;9.506;2022-08-19T01:53:12;97492.03;;;20.77;77.58
7802;BME280;3945;48.952;9.506;2022-08-19T01:55:40;97496.63;;;20.77;77.64
7802;BME280;3945;48.952;9.506;2022-08-19T01:58:09;97486.91;;;20.76;78.04
7802;BME280;3945;48.952;9.506;2022-08-19T02:00:37;97488.38;;;20.73;77.78
7802;BME280;3945;48.952;9.506;2022-08-19T02:03:03;97490.91;;;20.70;78.21
7802;BME280;3945;48.952;9.506;2022-08-19T02:05:29;97493.44;;;20.66;78.20
7802;BME280;3945;48.952;9.506;2022-08-19T02:07:56;97493.75;;;20.64;78.11
7802;BME280;3945;48.952;9.506;2022-08-19T02:10:24;97493.28;;;20.62;77.89
7802;BME280;3945;48.952;9.506;2022-08-19T02:12:50;97498.06;;;20.65;77.28
7802;BME280;3945;48.952;9.506;2022-08-19T02:15:18;97496.16;;;20.66;77.09
7802;BME280;3945;48.952;9.506;2022-08-19T02:17:45;97493.44;;;20.66;77.47
7802;BME280;3945;48.952;9.506;2022-08-19T02:20:12;97499.97;;;20.65;nan
7802;BME280;3945;48.952;9.506;2022-08-19T02:22:39;97493.75;;;20.64;77.84
7802;BME280;3945;48.952;9.506;2022-08-19T02:25:06;97503.31;;;20.71;76.46
7802;BME280;3945;48.952;9.506;2022-08-19T02:27:33;97507.28;;;20.73;76.22
7802;BME280;3945;48.952;9.506;2022-08-19T02:29:59;97515.88;;;20.75;75.93
7802;BME280;3945;48.952;9.506;2022-08-19T02:32:27;97522.41;;;20.74;76.02
7802;BME280;3945;48.952;9.506;2022-08-19T02:34:55;97520.03;;;20.73;76.01
7802;BME280;3945;48.952;9.506;2022-08-19T02:37:22;97521.13;;;20.72;76.03
7802;BME280;3945;48.952;9.506;2022-08-19T02:40:06;97518.72;;;20.70;75.81
7802;BME280;3945;48.952;9.506;2022-08-19T02:42:32;97513.97;;;20.67;76.02
7802;BME280;3945;48.952;9.506;2022-08-19T02:44:59;97504.09;;;20.62;76.81
7802;BME280;3945;48.952;9.506;2022-08-19T02:47:26;97513.66;;;20.60;77.53
7802;BME280;3945;48.952;9.506;2022-08-19T02:49:53;97506.16;;;20.57;78.19
7802;BME280;3945;48.952;9.506;2022-08-19T02:52:19;97503.91;;;20.50;78.88
7802;BME280;3945;48.952;9.506;2022-08-19T02:54:48;97504.06;;;20.45;79.35
7802;BME280;3945;48.952;9.506;2022-08-19T02:57:14;97503.09;;;20.41;79.63
7802;BME280;3945;48.952;9.506;2022-08-19T02:59:40;97505.66;;;20.38;79.90
7802;BME280;3945;48.952;9.506;2022-08-19T03:02:07;97500.34;;;20.33;80.04
7802;BME280;3945;48.952;9.506;2022-08-19T03:04:34;97488.25;;;20.30;80.18
7802;BME280;3945;48.952;9.506;2022-08-19T03:07:01;97492.06;;;20.29;80.14
7802;BME280;3945;48.952;9.506;2022-08-19T03:09:27;97493.19;;;20.28;80.01
7802;BME280;3945;48.952;9.506;2022-08-19T03:11:54;97492.22;;;20.24;80.10
7802;BME280;3945;48.952;9.506;2022-08-19T03:14:21;97503.81;;;20.24;80.30
7802;BME280;3945;48.952;9.506;2022-08-19T03:16:48;97507.94;;;20.22;80.43
7802;BME280;3945;48.952;9.506;2022-08-19T03:19:16;97508.25;;;20.20;80.36
7802;BME280;3945;48.952;9.506;2022-08-19T03:21:44;97509.38;;;20.19;80.15
7802;BME280;3945;48.952;9.506;2022-08-19T03:24:11;97511.25;;;20.19;80.15
7802;BME280;3945;48.952;9.506;2022-08-19T03:26:38;97503.66;;;20.21;80.04
7802;BME280;3945;48.952;9.506;2022-08-19T03:29:05;97508.25;;;20.20;80.16
7802;BME280;3945;48.952;9.506;2022-08-19T03:31:31;97508.25;;;20.20;80.23
7802;BME280;3945;48.952;9.506;2022-08-19T03:33:58;97520.16;;;20.19;80.54
7802;BME280;3945;48.952;9.506;2022-08-19T03:36:25;97509.84;;;20.21;80.62
7802;BME280;3945;48.952;9.506;2022-08-19T03:38:55;97508.75;;;20.22;80.66
7802;BME280;3945;48.952;9.506;2022-08-19T03:41:22;97506.34;;;20.21;80.86
7802;BME280;3945;48.952;9.506;2022-08-19T03:43:49;97504.94;;;20.23;80.81
7802;BME280;3945;48.952;9.506;2022-08-19T03:46:16;97508.91;;;20.26;80.80
7802;BME280;3945;48.952;9.506;2022-08-19T03:48:45;97507.47;;;20.20;81.41
7802;BME280;3945;48.952;9.506;2022-08-19T03:51:15;97510.81;;;20.17;81.43
7802;BME280;3945;48.952;9.506;2022-08-19T03:53:42;97505.06;;;20.18;81.34
7802;BME280;3945;48.952;9.506;2022-08-19T03:56:09;97505.41;;;20.17;81.23
7802;BME280;3945;48.952;9.506;2022-08-19T03:58:36;97507.13;;;20.13;81.40
7802;BME280;3945;48.952;9.506;2022-08-19T04:01:06;97508.22;;;20.12;81.70
7802;BME280;3945;48.952;9.506;2022-08-19T04:03:33;97510.47;;;20.10;81.69
7802;BME280;3945;48.952;9.506;2022-08-19T04:06:08;97508.88;;;20.09;81.81
7802;BME280;3945;48.952;9.506;2022-08-19T04:08:34;97513.47;;;20.08;81.69
7802;BME280;3945;48.952;9.506;2022-08-19T04:11:00;97504.38;;;20.04;81.75
7802;BME280;3945;48.952;9.506;2022-08-19T04:13:28;97514.72;;;20.11;81.41
7802;BME280;3945;48.952;9.506;2022-08-19T04:15:54;97513.16;;;20.10;81.44
7802;BME280;3945;48.952;9.506;2022-08-19T04:18:21;97510.75;;;20.08;81.97
7802;BME280;3945;48.952;9.506;2022-08-19T04:20:47;97508.38;;;20.07;81.91
7802;BME280;3945;48.952;9.506;2022-08-19T04:23:14;97513.91;;;20.02;82.23
7802;BME280;3945;48.952;9.506;2022-08-19T04:25:41;97511.22;;;20.02;81.92
7802;BME280;3945;48.952;9.506;2022-08-19T04:28:08;97513.44;;;20.00;81.96
7802;BME280;3945;48.952;9.506;2022-08-19T04:30:40;97515.31;;;19.99;82.07
7802;BME280;3945;48.952;9.506;2022-08-19T04:33:08;97511.53;;;20.00;82.35
7802;BME280;3945;48.952;9.506;2022-08-19T04:35:35;97502.63;;;20.00;82.27
7802;BME280;3945;48.952;9.506;2022-08-19T04:38:01;97501.53;;;20.01;82.35
7802;BME280;3945;48.952;9.506;2022-08-19T04:40:28;97497.38;;;20.03;82.43
7802;BME280;3945;48.952;9.506;2022-08-19T04:43:11;97502.94;;;19.98;82.39
7802;BME280;3945;48.952;9.506;2022-08-19T04:45:38;97505.78;;;19.93;82.59
7802;BME280;3945;48.952;9.506;2022-08-19T04:48:06;97498.78;;;19.92;82.94
7802;BME280;3945;48.952;9.506;2022-08-19T04:50:32;97501.78;;;19.91;83.10
7802;BME280;3945;48.952;9.506;2022-08-19T04:52:59;97504.00;;;19.88;83.21
7802;BME280;3945;48.952;9.506;2022-08-19T04:55:25;97500.19;;;19.89;83.08
7802;BME280;3945;48.952;9.506;2022-08-19T04:57:51;97512.44;;;19.87;83.03
7802;BME280;3945;48.952;9.506;2022-08-19T05:00:18;97511.00;;;19.89;83.00
7802;BME280;3945;48.952;9.506;2022-08-19T05:02:44;97519.88;;;19.90;83.04
7802;BME280;3945;48.952;9.506;2022-08-19T05:05:12;97522.72;;;19.85;83.58
7802;BME280;3945;48.952;9.506;2022-08-19T05:07:38;97522.44;;;19.86;83.50
7802;BME280;3945;48.952;9.506;2022-08-19T05:10:06;97532.94;;;19.88;83.78
7802;BME280;3945;48.952;9.506;2022-08-19T05:12:33;97528.00;;;19.90;83.81
7802;BME280;3945;48.952;9.506;2022-08-19T05:14:59;97534.69;;;19.93;83.55
7802;BME280;3945;48.952;9.506;2022-08-19T05:17:26;97545.66;;;19.96;83.36
7802;BME280;3945;48.952;9.506;2022-08-19T05:19:52;97547.25;;;19.97;83.51
7802;BME280;3945;48.952;9.506;2022-08-19T05:22:46;97548.41;;;20.05;82.58
7802;BME280;3945;48.952;9.506;2022-08-19T05:25:13;97560.19;;;20.09;81.76
7802;BME280;3945;48.952;9.506;2022-08-19T05:27:40;97565.25;;;20.10;81.67
7802;BME280;3945;48.952;9.506;2022-08-19T05:30:07;97565.75;;;20.12;81.45
7802;BME280;3945;48.952;9.506;2022-08-19T05:32:33;97585.34;;;20.18;81.35
7802;BME280;3945;48.952;9.506;2022-08-19T05:35:00;97591.06;;;20.16;80.96
7802;BME280;3945;48.952;9.506;2022-08-19T05:37:26;97599.19;;;20.16;80.86
7802;BME280;3945;48.952;9.506;2022-08-19T05:39:54;97601.06;;;20.16;80.71
7802;BME280;3945;48.952;9.506;2022-08-19T05:42:21;97598.69;;;20.14;81.14
7802;BME280;3945;48.952;9.506;2022-08-19T05:44:48;97611.38;;;20.14;81.07
7802;BME280;3945;48.952;9.506;2022-08-19T05:47:14;97608.69;;;20.14;81.22
7802;BME280;3945;48.952;9.506;2022-08-19T05:49:41;97610.28;;;20.15;81.14
7802;BME280;3945;48.952;9.506;2022-08-19T05:52:09;97612.69;;;20.16;80.88
7802;BME280;3945;48.952;9.506;2022-08-19T05:54:36;97611.88;;;20.16;80.73
7802;BME280;3945;48.952;9.506;2022-08-19T05:57:06;97615.69;;;20.15;81.01
7802;BME280;3945;48.952;9.506;2022-08-19T05:59:33;97621.59;;;20.17;81.13
7802;BME280;3945;48.952;9.506;2022-08-19T06:02:00;97620.47;;;20.18;81.41
7802;BME280;3945;48.952;9.506;2022-08-19T06:04:27;97626.06;;;20.21;81.87
7802;BME280;3945;48.952;9.506;2022-08-19T06:06:53;97627.34;;;20.24;82.47
7802;BME280;3945;48.952;9.506;2022-08-19T06:09:20;97624.66;;;20.24;82.62
7802;BME280;3945;48.952;9.506;2022-08-19T06:11:48;97622.72;;;20.24;83.13
7802;BME280;3945;48.952;9.506;2022-08-19T06:14:18;97620.34;;;20.23;83.30
7802;BME280;3945;48.952;9.506;2022-08-19T06:16:46;97625.25;;;20.21;83.50
7802;BME280;3945;48.952;9.506;2022-08-19T06:19:13;97621.75;;;20.20;83.54
7802;BME280;3945;48.952;9.506;2022-08-19T06:21:41;97619.53;;;20.22;83.70
7802;BME280;3945;48.952;9.506;2022-08-19T06:24:09;97612.69;;;20.25;83.75
7802;BME280;3945;48.952;9.506;2022-08-19T06:26:36;97606.69;;;20.28;84.28
7802;BME280;3945;48.952;9.506;2022-08-19T06:29:04;97602.25;;;20.32;84.53
7802;BME280;3945;48.952;9.506;2022-08-19T06:31:33;97607.72;;;20.41;84.49
7802;BME280;3945;48.952;9.506;2022-08-19T06:33:59;97600.75;;;20.48;84.30
7802;BME280;3945;48.952;9.506;2022-08-19T06:36:27;97601.09;;;20.55;84.21
7802;BME280;3945;48.952;9.506;2022-08-19T06:38:56;97605.88;;;20.58;84.75
7802;BME280;3945;48.952;9.506;2022-08-19T06:41:22;97608.94;;;20.65;84.88
7802;BME280;3945;48.952;9.506;2022-08-19T06:43:49;97606.38;;;20.69;83.53
7802;BME280;3945;48.952;9.506;2022-08-19T06:46:16;97608.97;;;20.74;83.28
7802;BME280;3945;48.952;9.506;2022-08-19T06:48:45;97608.16;;;20.82;82.51
7802;BME280;3945;48.952;9.506;2022-08-19T06:51:12;97600.56;;;20.93;81.79
7802;BME280;3945;48.952;9.506;2022-08-19T06:53:40;97606.94;;;21.05;81.65
7802;BME280;3945;48.952;9.506;2022-08-19T06:56:11;97618.44;;;21.20;82.04
7802;BME280;3945;48.952;9.506;2022-08-19T06:58:38;97618.78;;;21.27;80.11
7802;BME280;3945;48.952;9.506;2022-08-19T07:01:04;97613.84;;;21.29;79.33
7802;BME280;3945;48.952;9.506;2022-08-19T07:03:31;97622.78;;;21.29;78.73
7802;BME280;3945;48.952;9.506;2022-08-19T07:06:03;97625.31;;;21.26;77.57
7802;BME280;3945;48.952;9.506;2022-08-19T07:08:30;97624.97;;;21.19;78.27
7802;BME280;3945;48.952;9.506;2022-08-19T07:10:56;97626.44;;;21.16;78.20
7802;BME280;3945;48.952;9.506;2022-08-19T07:13:23;97623.88;;;21.20;78.94
7802;BME280;3945;48.952;9.506;2022-08-19T07:15:49;97626.25;;;21.21;78.82
7802;BME280;3945;48.952;9.506;2022-08-19T07:18:16;97629.94;;;21.17;78.06
7802;BME280;3945;48.952;9.506;2022-08-19T07:20:42;97635.94;;;21.14;77.87
7802;BME280;3945;48.952;9.506;2022-08-19T07:23:10;97624.78;;;21.07;78.49
7802;BME280;3945;48.952;9.506;2022-08-19T07:25:37;97631.59;;;21.04;79.13
7802;BME280;3945;48.952;9.506;2022-08-19T07:28:04;97629.69;;;21.04;78.54
7802;BME280;3945;48.952;9.506;2022-08-19T07:30:32;97628.91;;;21.04;78.70
7802;BME280;3945;48.952;9.506;2022-08-19T07:32:58;97631.59;;;21.04;78.83
7802;BME280;3945;48.952;9.506;2022-08-19T07:35:25;97631.75;;;20.99;79.01
7802;BME280;3945;48.952;9.506;2022-08-19T07:37:53;97630.97;;;20.98;78.71
7802;BME280;3945;48.952;9.506;2022-08-19T07:40:21;97629.72;;;20.96;78.68
7802;BME280;3945;48.952;9.506;2022-08-19T07:42:47;97623.97;;;20.97;78.68
7802;BME280;3945;48.952;9.506;2022-08-19T07:45:13;97629.06;;;20.99;79.28
7802;BME280;3945;48.952;9.506;2022-08-19T07:47:40;97623.34;;;21.00;79.12
7802;BME280;3945;48.952;9.506;2022-08-19T07:50:08;97621.28;;;21.06;79.58
7802;BME280;3945;48.952;9.506;2022-08-19T07:52:36;97619.69;;;21.14;79.14
7802;BME280;3945;48.952;9.506;2022-08-19T07:55:05;97628.31;;;21.16;79.14
7802;BME280;3945;48.952;9.506;2022-08-19T07:57:32;97626.13;;;21.18;78.76
7802;BME280;3945;48.952;9.506;2022-08-19T07:59:59;97641.03;;;21.15;79.38
7802;BME280;3945;48.952;9.506;2022-08-19T08:02:25;97638.63;;;21.14;79.36
7802;BME280;3945;48.952;9.506;2022-08-19T08:04:51;97633.53;;;21.12;79.54
7802;BME280;3945;48.952;9.506;2022-08-19T08:07:35;97642.66;;;21.16;79.90
7802;BME280;3945;48.952;9.506;2022-08-19T08:10:19;97650.47;;;21.18;79.53
7802;BME280;3945;48.952;9.506;2022-08-19T08:12:47;97648.88;;;21.17;79.89
7802;BME280;3945;48.952;9.506;2022-08-19T08:15:14;97646.97;;;21.17;80.22
7802;BME280;3945;48.952;9.506;2022-08-19T08:17:43;97653.94;;;21.18;80.25
7802;BME280;3945;48.952;9.506;2022-08-19T08:20:10;97648.22;;;21.20;79.59
7802;BME280;3945;48.952;9.506;2022-08-19T08:22:42;97652.53;;;21.21;79.87
7802;BME280;3945;48.952;9.506;2022-08-19T08:25:26;97655.72;;;21.23;79.64
7802;BME280;3945;48.952;9.506;2022-08-19T08:27:53;97654.13;;;21.22;79.78
7802;BME280;3945;48.952;9.506;2022-08-19T08:30:22;97658.44;;;21.23;79.76
7802;BME280;3945;48.952;9.506;2022-08-19T08:32:49;97655.06;;;21.26;79.92
7802;BME280;3945;48.952;9.506;2022-08-19T08:35:16;97647.75;;;21.26;80.06
7802;BME280;3945;48.952;9.506;2022-08-19T08:37:43;97646.97;;;21.26;79.97
7802;BME280;3945;48.952;9.506;2022-08-19T08:40:13;97649.03;;;21.29;80.01
7802;BME280;3945;48.952;9.506;2022-08-19T08:42:43;97644.25;;;21.34;80.81
7802;BME280;3945;48.952;9.506;2022-08-19T08:45:13;97647.59;;;21.40;79.86
7802;BME280;3945;48.952;9.506;2022-08-19T08:47:41;97641.25;;;21.45;79.71
7802;BME280;3945;48.952;9.506;2022-08-19T08:50:10;97651.63;;;21.51;79.83
7802;BME280;3945;48.952;9.506;2022-08-19T08:52:41;97644.91;;;21.57;79.78
7802;BME280;3945;48.952;9.506;2022-08-19T08:55:10;97648.13;;;21.59;78.60
7802;BME280;3945;48.952;9.506;2022-08-19T08:57:39;97648.56;;;21.61;78.86
7802;BME280;3945;48.952;9.506;2022-08-19T09:00:08;97642.03;;;21.62;78.52
7802;BME280;3945;48.952;9.506;2022-08-19T09:05:03;97648.13;;;21.68;78.13
7802;BME280;3945;48.952;9.506;2022-08-19T09:07:39;97639.81;;;21.73;78.53
7802;BME280;3945;48.952;9.506;2022-08-19T09:10:08;97645.38;;;21.76;79.30
7802;BME280;3945;48.952;9.506;2022-08-19T09:12:38;97652.38;;;21.77;79.32
7802;BME280;3945;48.952;9.506;2022-08-19T09:15:06;97650.31;;;21.83;79.14
7802;BME280;3945;48.952;9.506;2022-08-19T09:17:33;97660.22;;;21.88;79.11
7802;BME280;3945;48.952;9.506;2022-08-19T09:20:00;97657.19;;;21.89;79.18
7802;BME280;3945;48.952;9.506;2022-08-19T09:22:31;97658.59;;;21.95;77.73
7802;BME280;3945;48.952;9.506;2022-08-19T09:24:57;97667.38;;;21.92;77.91
7802;BME280;3945;48.952;9.506;2022-08-19T09:27:24;97668.81;;;21.90;77.68
7802;BME280;3945;48.952;9.506;2022-08-19T09:29:51;97666.13;;;21.90;78.03
7802;BME280;3945;48.952;9.506;2022-08-19T09:32:18;97666.44;;;21.88;77.32
7802;BME280;3945;48.952;9.506;2022-08-19T09:34:45;97667.53;;;21.87;77.54
7802;BME280;3945;48.952;9.506;2022-08-19T09:37:12;97671.03;;;21.88;77.58
7802;BME280;3945;48.952;9.506;2022-08-19T09:39:40;97667.22;;;21.89;77.07
7802;BME280;3945;48.952;9.506;2022-08-19T09:42:07;97674.25;;;21.90;77.32
7802;BME280;3945;48.952;9.506;2022-08-19T09:44:37;97666.25;;;21.93;77.59
7802;BME280;3945;48.952;9.506;2022-08-19T09:47:03;97668.03;;;21.98;77.87
7802;BME280;3945;48.952;9.506;2022-08-19T09:49:30;97671.22;;;22.00;77.09
7802;BME280;3945;48.952;9.506;2022-08-19T09:51:56;97671.66;;;21.93;77.57
7802;BME280;3945;48.952;9.506;2022-08-19T09:54:23;97672.94;;;21.96;77.71
7802;BME280;3945;48.952;9.506;2022-08-19T09:56:50;97668.03;;;21.98;77.46
7802;BME280;3945;48.952;9.506;2022-08-19T09:59:17;97668.19;;;22.01;77.27
7802;BME280;3945;48.952;9.506;2022-08-19T10:01:43;97658.63;;;22.04;77.38
7802;BME280;3945;48.952;9.506;2022-08-19T10:04:10;97666.91;;;22.07;77.36
7802;BME280;3945;48.952;9.506;2022-08-19T10:06:36;97666.09;;;22.15;78.16
7802;BME280;3945;48.952;9.506;2022-08-19T10:09:04;97668.31;;;22.22;79.73
7802;BME280;3945;48.952;9.506;2022-08-19T10:11:31;97658.06;;;22.28;79.97
7802;BME280;3945;48.952;9.506;2022-08-19T10:13:59;97667.31;;;22.35;80.07
7802;BME280;3945;48.952;9.506;2022-08-19T10:16:25;97662.50;;;22.41;80.98
7802;BME280;3945;48.952;9.506;2022-08-19T10:18:52;97663.94;;;22.47;81.75
7802;BME280;3945;48.952;9.506;2022-08-19T10:21:20;97665.19;;;22.49;80.71
7802;BME280;3945;48.952;9.506;2022-08-19T10:23:48;97660.44;;;22.46;80.65
7802;BME280;3945;48.952;9.506;2022-08-19T10:26:16;97663.47;;;22.45;81.37
7802;BME280;3945;48.952;9.506;2022-08-19T10:28:44;97666.97;;;22.45;81.87
7802;BME280;3945;48.952;9.506;2022-08-19T10:31:12;97660.28;;;22.43;81.70
7802;BME280;3945;48.952;9.506;2022-08-19T10:33:39;97664.91;;;22.42;82.83
7802;BME280;3945;48.952;9.506;2022-08-19T10:36:06;97658.97;;;22.49;82.96
7802;BME280;3945;48.952;9.506;2022-08-19T10:38:34;97655.31;;;22.53;83.11
7802;BME280;3945;48.952;9.506;2022-08-19T10:41:07;97657.50;;;22.60;82.38
7802;BME280;3945;48.952;9.506;2022-08-19T10:43:34;97650.47;;;22.59;81.71
7802;BME280;3945;48.952;9.506;2022-08-19T10:46:02;97648.56;;;22.59;81.95
7802;BME280;3945;48.952;9.506;2022-08-19T10:48:30;97656.84;;;22.63;81.32
7802;BME280;3945;48.952;9.506;2022-08-19T10:50:56;97652.41;;;22.58;80.88
7802;BME280;3945;48.952;9.506;2022-08-19T10:53:40;97658.47;;;22.55;80.63
7802;BME280;3945;48.952;9.506;2022-08-19T10:56:07;97661.03;;;22.52;81.01
7802;BME280;3945;48.952;9.506;2022-08-19T10:58:50;97659.16;;;22.44;80.47
7802;BME280;3945;48.952;9.506;2022-08-19T11:01:17;97659.19;;;22.35;81.08
7802;BME280;3945;48.952;9.506;2022-08-19T11:03:45;97663.50;;;22.28;81.30
7802;BME280;3945;48.952;9.506;2022-08-19T11:06:11;97656.97;;;22.20;81.11
7802;BME280;3945;48.952;9.506;2022-08-19T11:08:37;97657.97;;;22.15;81.70
7802;BME280;3945;48.952;9.506;2022-08-19T11:11:04;97656.22;;;22.11;81.09
7802;BME280;3945;48.952;9.506;2022-08-19T11:13:33;97659.09;;;22.06;82.54
7802;BME280;3945;48.952;9.506;2022-08-19T11:16:02;97654.78;;;22.05;83.01
7802;BME280;3945;48.952;9.506;2022-08-19T11:18:29;97652.41;;;22.03;82.56
7802;BME280;3945;48.952;9.506;2022-08-19T11:21:04;97654.00;;;22.04;82.75
7802;BME280;3945;48.952;9.506;2022-08-19T11:23:30;97646.66;;;22.05;81.74
7802;BME280;3945;48.952;9.506;2022-08-19T11:25:57;97641.56;;;22.03;82.35
7802;BME280;3945;48.952;9.506;2022-08-19T11:28:24;97646.31;;;22.06;81.56
7802;BME280;3945;48.952;9.506;2022-08-19T11:30:50;97648.25;;;22.06;81.17
7802;BME280;3945;48.952;9.506;2022-08-19T11:33:17;97643.94;;;22.05;80.93
7802;BME280;3945;48.952;9.506;2022-08-19T11:35:44;97649.84;;;22.07;81.29
7802;BME280;3945;48.952;9.506;2022-08-19T11:38:11;97649.53;;;22.08;81.15
7802;BME280;3945;48.952;9.506;2022-08-19T11:40:39;97653.22;;;22.04;80.96
7802;BME280;3945;48.952;9.506;2022-08-19T11:43:07;97650.94;;;22.06;81.04
7802;BME280;3945;48.952;9.506;2022-08-19T11:45:34;97648.91;;;22.03;81.94
7802;BME280;3945;48.952;9.506;2022-08-19T11:48:00;97654.63;;;22.01;81.88
7802;BME280;3945;48.952;9.506;2022-08-19T11:50:27;97656.38;;;21.97;82.05
7802;BME280;3945;48.952;9.506;2022-08-19T11:52:54;97654.94;;;21.91;82.17
7802;BME280;3945;48.952;9.506;2022-08-19T11:55:22;97645.53;;;21.89;82.60
7802;BME280;3945;48.952;9.506;2022-08-19T11:57:49;97654.13;;;21.91;82.73
7802;BME280;3945;48.952;9.506;2022-08-19T12:00:15;97657.00;;;21.94;82.52
7802;BME280;3945;48.952;9.506;2022-08-19T12:02:42;97654.63;;;21.93;83.16
7802;BME280;3945;48.952;9.506;2022-08-19T12:05:08;97654.63;;;21.93;82.96
7802;BME280;3945;48.952;9.506;2022-08-19T12:07:35;97652.56;;;21.90;82.83
7802;BME280;3945;48.952;9.506;2022-08-19T12:10:01;97655.72;;;21.92;82.88
7802;BME280;3945;48.952;9.506;2022-08-19T12:12:29;97651.59;;;21.94;83.16
7802;BME280;3945;48.952;9.506;2022-08-19T12:14:55;97658.31;;;21.97;83.63
7802;BME280;3945;48.952;9.506;2022-08-19T12:17:23;97654.63;;;22.01;82.56
7802;BME280;3945;48.952;9.506;2022-08-19T12:19:50;97653.50;;;21.94;83.06
7802;BME280;3945;48.952;9.506;2022-08-19T12:22:16;97654.81;;;21.96;83.41
7802;BME280;3945;48.952;9.506;2022-08-19T12:24:42;97648.25;;;21.97;83.11
7802;BME280;3945;48.952;9.506;2022-08-19T12:27:09;97654.94;;;22.00;83.53
7802;BME280;3945;48.952;9.506;2022-08-19T12:29:36;97657.97;;;22.07;83.56
7802;BME280;3945;48.952;9.506;2022-08-19T12:32:03;97655.44;;;22.10;83.30
7802;BME280;3945;48.952;9.506;2022-08-19T12:34:29;97658.59;;;22.12;82.93
7802;BME280;3945;48.952;9.506;2022-08-19T12:36:57;97654.25;;;22.20;83.19
7802;BME280;3945;48.952;9.506;2022-08-19T12:39:23;97651.72;;;22.24;82.73
7802;BME280;3945;48.952;9.506;2022-08-19T12:41:50;97656.34;;;22.23;82.78
7802;BME280;3945;48.952;9.506;2022-08-19T12:44:16;97659.84;;;22.24;82.54
7802;BME280;3945;48.952;9.506;2022-08-19T12:46:44;97654.13;;;22.25;82.03
7802;BME280;3945;48.952;9.506;2022-08-19T12:49:10;97654.91;;;22.26;82.92
7802;BME280;3945;48.952;9.506;2022-08-19T12:51:37;97648.03;;;22.28;83.03
7802;BME280;3945;48.952;9.506;2022-08-19T12:54:03;97648.66;;;22.34;82.92
7802;BME280;3945;48.952;9.506;2022-08-19T12:56:30;97658.22;;;22.40;83.05
7802;BME280;3945;48.952;9.506;2022-08-19T12:59:00;97661.22;;;22.47;82.49
7802;BME280;3945;48.952;9.506;2022-08-19T13:01:26;97658.34;;;22.52;81.22
7802;BME280;3945;48.952;9.506;2022-08-19T13:03:59;97656.75;;;22.51;81.53
7802;BME280;3945;48.952;9.506;2022-08-19T13:06:25;97656.09;;;22.54;81.38
7802;BME280;3945;48.952;9.506;2022-08-19T13:08:52;97657.53;;;22.51;81.80
7802;BME280;3945;48.952;9.506;2022-08-19T13:11:19;97660.25;;;22.51;81.97
7802;BME280;3945;48.952;9.506;2022-08-19T13:13:48;97656.91;;;22.54;81.77
7802;BME280;3945;48.952;9.506;2022-08-19T13:16:15;97661.97;;;22.56;81.18
7802;BME280;3945;48.952;9.506;2022-08-19T13:18:42;97660.84;;;22.57;80.90
7802;BME280;3945;48.952;9.506;2022-08-19T13:21:11;97659.41;;;22.59;79.75
7802;BME280;3945;48.952;9.506;2022-08-19T13:23:38;97652.09;;;22.60;80.01
7802;BME280;3945;48.952;9.506;2022-08-19T13:26:05;97661.03;;;22.61;80.11